createdAt,value
2017-02-28T00:00:34.896Z,0
2017-02-28T00:01:35.625Z,0
2017-02-28T00:02:35.605Z,0
2017-02-28T00:03:35.201Z,0
2017-02-28T00:04:35.573Z,0
2017-02-28T00:05:35.540Z,0
2017-02-28T00:06:35.544Z,0
2017-02-28T00:07:35.134Z,0
2017-02-28T00:08:35.503Z,0
2017-02-28T00:09:35.485Z,0
2017-02-28T00:10:35.443Z,0
2017-02-28T00:11:35.418Z,0
2017-02-28T00:12:35.438Z,0
2017-02-28T00:13:35.382Z,0
2017-02-28T00:14:35.383Z,0
2017-02-28T00:15:35.348Z,0
2017-02-28T00:16:34.926Z,0
2017-02-28T00:17:35.296Z,0
2017-02-28T00:18:35.282Z,0
2017-02-28T00:19:34.862Z,0
2017-02-28T00:20:35.267Z,0
2017-02-28T00:21:35.219Z,0
2017-02-28T00:22:35.197Z,0
2017-02-28T00:23:35.156Z,0
2017-02-28T00:24:35.180Z,0
2017-02-28T00:25:35.128Z,0
2017-02-28T00:26:35.107Z,0
2017-02-28T00:27:35.108Z,0
2017-02-28T00:28:35.091Z,0
2017-02-28T00:29:35.042Z,0
2017-02-28T00:30:35.007Z,0
2017-02-28T00:31:34.635Z,0
2017-02-28T00:32:34.991Z,0
2017-02-28T00:33:34.957Z,0
2017-02-28T00:34:34.948Z,0
2017-02-28T00:35:34.959Z,0
2017-02-28T00:36:34.965Z,0
2017-02-28T00:37:34.883Z,0
2017-02-28T00:38:34.457Z,0
2017-02-28T00:39:34.859Z,0
2017-02-28T00:40:34.848Z,0
2017-02-28T00:41:34.814Z,0
2017-02-28T00:42:34.752Z,0
2017-02-28T00:43:34.771Z,0
2017-02-28T00:44:34.757Z,0
2017-02-28T00:45:34.741Z,0
2017-02-28T00:46:34.712Z,0
2017-02-28T00:47:34.687Z,0
2017-02-28T00:48:34.651Z,0
2017-02-28T00:49:34.634Z,0
2017-02-28T00:50:34.612Z,0
2017-02-28T00:51:34.589Z,0
2017-02-28T00:52:34.562Z,0
2017-02-28T00:53:34.558Z,0
2017-02-28T00:54:34.518Z,0
2017-02-28T00:55:34.499Z,0
2017-02-28T00:56:34.495Z,0
2017-02-28T00:57:34.464Z,0
2017-02-28T00:58:34.432Z,0
2017-02-28T00:59:34.398Z,0
2017-02-28T01:00:34.382Z,0
2017-02-28T01:01:34.409Z,0
2017-02-28T01:02:34.364Z,0
2017-02-28T01:03:34.326Z,0
2017-02-28T01:04:34.357Z,0
2017-02-28T01:05:33.916Z,0
2017-02-28T01:06:33.915Z,0
2017-02-28T01:07:34.245Z,0
2017-02-28T01:08:34.264Z,0
2017-02-28T01:09:34.231Z,0
2017-02-28T01:10:33.848Z,0
2017-02-28T01:11:34.171Z,0
2017-02-28T01:12:34.151Z,0
2017-02-28T01:13:33.778Z,0
2017-02-28T01:14:33.738Z,0
2017-02-28T01:15:34.092Z,0
2017-02-28T01:16:34.071Z,0
2017-02-28T01:17:34.057Z,0
2017-02-28T01:18:33.630Z,0
2017-02-28T01:19:34.010Z,0
2017-02-28T01:20:33.995Z,0
2017-02-28T01:21:33.979Z,0
2017-02-28T01:22:33.952Z,0
2017-02-28T01:23:33.933Z,0
2017-02-28T01:24:33.561Z,0
2017-02-28T01:25:33.897Z,0
2017-02-28T01:26:33.864Z,0
2017-02-28T01:27:33.871Z,0
2017-02-28T01:28:33.422Z,0
2017-02-28T01:29:33.797Z,0
2017-02-28T01:30:33.782Z,0
2017-02-28T01:31:33.767Z,0
2017-02-28T01:32:33.767Z,0
2017-02-28T01:33:33.721Z,0
2017-02-28T01:34:33.709Z,0
2017-02-28T01:35:33.671Z,0
2017-02-28T01:36:33.642Z,0
2017-02-28T01:37:33.266Z,0
2017-02-28T01:38:33.595Z,0
2017-02-28T01:39:33.613Z,0
2017-02-28T01:40:33.560Z,0
2017-02-28T01:41:33.544Z,0
2017-02-28T01:42:33.579Z,0
2017-02-28T01:43:33.515Z,0
2017-02-28T01:44:33.104Z,0
2017-02-28T01:45:32.702Z,0
2017-02-28T01:46:33.451Z,0
2017-02-28T01:47:33.077Z,0
2017-02-28T01:48:33.042Z,0
2017-02-28T01:49:33.409Z,0
2017-02-28T01:50:33.377Z,0
2017-02-28T01:51:32.979Z,0
2017-02-28T01:52:32.985Z,0
2017-02-28T01:53:33.309Z,0
2017-02-28T01:54:33.322Z,0
2017-02-28T01:55:33.280Z,0
2017-02-28T01:56:33.259Z,0
2017-02-28T01:57:33.216Z,0
2017-02-28T01:58:33.233Z,0
2017-02-28T01:59:32.820Z,0
2017-02-28T02:00:33.153Z,0
2017-02-28T02:01:33.147Z,0
2017-02-28T02:02:33.164Z,0
2017-02-28T02:03:32.712Z,0
2017-02-28T02:04:32.697Z,0
2017-02-28T02:05:33.092Z,0
2017-02-28T02:06:33.058Z,0
2017-02-28T02:07:32.641Z,0
2017-02-28T02:08:32.832Z,0
2017-02-28T02:09:32.977Z,0
2017-02-28T02:10:32.574Z,0
2017-02-28T02:11:32.932Z,0
2017-02-28T02:12:33.150Z,0
2017-02-28T02:13:32.898Z,0
2017-02-28T02:14:32.103Z,0
2017-02-28T02:15:32.854Z,0
2017-02-28T02:16:32.453Z,0
2017-02-28T02:17:32.433Z,0
2017-02-28T02:18:32.816Z,0
2017-02-28T02:19:32.788Z,0
2017-02-28T02:20:32.409Z,0
2017-02-28T02:21:32.715Z,0
2017-02-28T02:22:32.364Z,0
2017-02-28T02:23:32.690Z,0
2017-02-28T02:24:32.659Z,0
2017-02-28T02:25:32.666Z,0
2017-02-28T02:26:32.611Z,0
2017-02-28T02:27:32.606Z,0
2017-02-28T02:28:32.588Z,0
2017-02-28T02:29:32.573Z,0
2017-02-28T02:30:32.153Z,0
2017-02-28T02:31:32.525Z,0
2017-02-28T02:32:32.503Z,0
2017-02-28T02:33:32.310Z,0
2017-02-28T02:34:32.466Z,0
2017-02-28T02:35:32.056Z,0
2017-02-28T02:36:32.418Z,0
2017-02-28T02:37:32.451Z,0
2017-02-28T02:38:32.375Z,0
2017-02-28T02:39:32.007Z,0
2017-02-28T02:40:32.326Z,0
2017-02-28T02:41:32.318Z,0
2017-02-28T02:42:31.942Z,0
2017-02-28T02:43:32.290Z,0
2017-02-28T02:44:32.265Z,0
2017-02-28T02:45:31.690Z,0
2017-02-28T02:46:32.406Z,0
2017-02-28T02:47:32.212Z,0
2017-02-28T02:48:32.225Z,0
2017-02-28T02:49:31.795Z,0
2017-02-28T02:50:32.134Z,0
2017-02-28T02:51:32.330Z,0
2017-02-28T02:52:32.102Z,0
2017-02-28T02:53:32.067Z,0
2017-02-28T02:54:32.076Z,0
2017-02-28T02:55:31.645Z,0
2017-02-28T02:56:32.031Z,0
2017-02-28T02:57:32.009Z,0
2017-02-28T02:58:31.595Z,0
2017-02-28T02:59:31.970Z,0
2017-02-28T03:00:31.931Z,0
2017-02-28T03:01:31.911Z,0
2017-02-28T03:02:31.525Z,0
2017-02-28T03:03:31.903Z,0
2017-02-28T03:04:31.466Z,0
2017-02-28T03:05:31.840Z,0
2017-02-28T03:06:31.830Z,0
2017-02-28T03:07:31.839Z,0
2017-02-28T03:08:45.439Z,0
2017-02-28T03:09:31.742Z,0
2017-02-28T03:10:31.721Z,0
2017-02-28T03:11:31.730Z,0
2017-02-28T03:12:30.923Z,0
2017-02-28T03:13:31.668Z,0
2017-02-28T03:14:31.069Z,0
2017-02-28T03:15:31.640Z,0
2017-02-28T03:16:31.626Z,0
2017-02-28T03:17:31.582Z,0
2017-02-28T03:18:31.566Z,0
2017-02-28T03:19:31.371Z,0
2017-02-28T03:20:31.528Z,0
2017-02-28T03:21:31.510Z,0
2017-02-28T03:22:31.129Z,0
2017-02-28T03:23:31.471Z,0
2017-02-28T03:24:31.434Z,0
2017-02-28T03:25:31.470Z,0
2017-02-28T03:26:31.011Z,0
2017-02-28T03:27:30.619Z,0
2017-02-28T03:28:31.350Z,0
2017-02-28T03:29:31.367Z,0
2017-02-28T03:30:31.318Z,0
2017-02-28T03:31:31.319Z,0
2017-02-28T03:32:31.289Z,0
2017-02-28T03:33:31.258Z,0
2017-02-28T03:34:31.226Z,0
2017-02-28T03:35:30.837Z,0
2017-02-28T03:36:30.810Z,0
2017-02-28T03:37:31.217Z,0
2017-02-28T03:38:31.161Z,0
2017-02-28T03:39:31.143Z,0
2017-02-28T03:40:31.117Z,0
2017-02-28T03:41:31.090Z,0
2017-02-28T03:42:31.081Z,0
2017-02-28T03:43:30.687Z,0
2017-02-28T03:44:31.031Z,0
2017-02-28T03:45:30.817Z,0
2017-02-28T03:46:31.199Z,0
2017-02-28T03:47:30.776Z,0
2017-02-28T03:48:30.955Z,0
2017-02-28T03:49:30.569Z,0
2017-02-28T03:50:30.910Z,0
2017-02-28T03:51:30.522Z,0
2017-02-28T03:52:30.481Z,0
2017-02-28T03:53:30.094Z,0
2017-02-28T03:54:30.846Z,0
2017-02-28T03:55:30.417Z,0
2017-02-28T03:56:30.799Z,0
2017-02-28T03:57:30.777Z,0
2017-02-28T03:58:30.744Z,0
2017-02-28T03:59:30.735Z,0
2017-02-28T04:00:30.706Z,0
2017-02-28T04:01:30.698Z,0
2017-02-28T04:02:30.295Z,0
2017-02-28T04:03:30.669Z,0
2017-02-28T04:04:30.621Z,0
2017-02-28T04:05:30.611Z,0
2017-02-28T04:06:30.632Z,0
2017-02-28T04:07:30.570Z,0
2017-02-28T04:08:30.581Z,0
2017-02-28T04:09:30.527Z,0
2017-02-28T04:10:30.497Z,0
2017-02-28T04:11:30.120Z,0
2017-02-28T04:12:30.478Z,0
2017-02-28T04:13:30.086Z,0
2017-02-28T04:14:30.430Z,0
2017-02-28T04:15:30.044Z,0
2017-02-28T04:16:30.384Z,0
2017-02-28T04:17:30.392Z,0
2017-02-28T04:18:30.329Z,0
2017-02-28T04:19:30.335Z,0
2017-02-28T04:20:30.505Z,0
2017-02-28T04:21:30.278Z,0
2017-02-28T04:22:30.279Z,0
2017-02-28T04:23:30.241Z,0
2017-02-28T04:24:30.241Z,0
2017-02-28T04:25:43.600Z,0
2017-02-28T04:26:29.808Z,0
2017-02-28T04:27:30.190Z,0
2017-02-28T04:28:30.144Z,0
2017-02-28T04:29:30.108Z,0
2017-02-28T04:30:30.141Z,0
2017-02-28T04:31:30.117Z,0
2017-02-28T04:32:29.669Z,0
2017-02-28T04:33:30.033Z,0
2017-02-28T04:34:30.045Z,0
2017-02-28T04:35:30.014Z,0
2017-02-28T04:36:29.985Z,0
2017-02-28T04:37:29.974Z,0
2017-02-28T04:38:29.951Z,0
2017-02-28T04:39:29.939Z,0
2017-02-28T04:40:29.904Z,0
2017-02-28T04:41:29.877Z,0
2017-02-28T04:42:29.883Z,0
2017-02-28T04:43:29.823Z,0
2017-02-28T04:44:29.810Z,0
2017-02-28T04:45:29.820Z,0
2017-02-28T04:46:29.802Z,0
2017-02-28T04:47:29.959Z,0
2017-02-28T04:48:29.744Z,0
2017-02-28T04:49:29.718Z,0
2017-02-28T04:50:29.719Z,0
2017-02-28T04:51:29.677Z,0
2017-02-28T04:52:29.674Z,0
2017-02-28T04:53:43.021Z,0
2017-02-28T04:54:29.236Z,0
2017-02-28T04:55:29.601Z,0
2017-02-28T04:56:29.559Z,0
2017-02-28T04:57:29.556Z,0
2017-02-28T04:58:29.733Z,0
2017-02-28T04:59:29.535Z,0
2017-02-28T05:00:29.490Z,0
2017-02-28T05:01:29.469Z,0
2017-02-28T05:02:29.475Z,0
2017-02-28T05:03:28.683Z,0
2017-02-28T05:04:29.408Z,0
2017-02-28T05:05:29.453Z,0
2017-02-28T05:06:29.364Z,0
2017-02-28T05:07:29.369Z,0
2017-02-28T05:08:28.925Z,0
2017-02-28T05:09:29.306Z,0
2017-02-28T05:10:29.298Z,0
2017-02-28T05:11:28.870Z,0
2017-02-28T05:12:29.239Z,0
2017-02-28T05:13:28.851Z,0
2017-02-28T05:14:29.201Z,0
2017-02-28T05:15:29.182Z,0
2017-02-28T05:16:29.213Z,0
2017-02-28T05:17:29.129Z,0
2017-02-28T05:18:29.131Z,0
2017-02-28T05:19:28.319Z,0
2017-02-28T05:20:29.097Z,0
2017-02-28T05:21:29.064Z,0
2017-02-28T05:22:29.038Z,0
2017-02-28T05:23:29.009Z,0
2017-02-28T05:24:28.984Z,0
2017-02-28T05:25:28.964Z,0
2017-02-28T05:26:29.145Z,4
2017-02-28T05:27:28.920Z,4
2017-02-28T05:28:28.911Z,4
2017-02-28T05:29:28.878Z,4
2017-02-28T05:30:28.883Z,0
2017-02-28T05:31:28.847Z,4
2017-02-28T05:32:28.450Z,8
2017-02-28T05:33:28.814Z,4
2017-02-28T05:34:28.796Z,8
2017-02-28T05:35:28.750Z,8
2017-02-28T05:36:28.722Z,8
2017-02-28T05:37:28.705Z,12
2017-02-28T05:38:28.312Z,16
2017-02-28T05:39:28.302Z,16
2017-02-28T05:40:28.640Z,24
2017-02-28T05:41:28.669Z,24
2017-02-28T05:42:28.660Z,28
2017-02-28T05:43:28.616Z,32
2017-02-28T05:44:28.189Z,36
2017-02-28T05:45:28.550Z,44
2017-02-28T05:46:28.535Z,60
2017-02-28T05:47:28.517Z,60
2017-02-28T05:48:28.500Z,64
2017-02-28T05:49:28.507Z,76
2017-02-28T05:50:28.105Z,92
2017-02-28T05:51:28.045Z,104
2017-02-28T05:52:28.421Z,124
2017-02-28T05:53:28.035Z,136
2017-02-28T05:54:28.413Z,148
2017-02-28T05:55:28.372Z,156
2017-02-28T05:56:27.961Z,180
2017-02-28T05:57:28.345Z,208
2017-02-28T05:58:28.313Z,220
2017-02-28T05:59:28.275Z,220
2017-02-28T06:00:28.274Z,252
2017-02-28T06:01:28.243Z,264
2017-02-28T06:02:28.232Z,284
2017-02-28T06:03:28.203Z,320
2017-02-28T06:04:28.221Z,328
2017-02-28T06:05:28.153Z,296
2017-02-28T06:06:28.178Z,268
2017-02-28T06:07:27.715Z,256
2017-02-28T06:08:28.105Z,292
2017-02-28T06:09:28.098Z,364
2017-02-28T06:10:28.082Z,428
2017-02-28T06:11:28.040Z,472
2017-02-28T06:12:28.014Z,472
2017-02-28T06:13:27.986Z,480
2017-02-28T06:14:27.605Z,492
2017-02-28T06:15:27.575Z,524
2017-02-28T06:16:27.553Z,600
2017-02-28T06:17:27.909Z,660
2017-02-28T06:18:27.936Z,836
2017-02-28T06:19:27.876Z,868
2017-02-28T06:20:27.873Z,876
2017-02-28T06:21:27.841Z,852
2017-02-28T06:22:27.441Z,828
2017-02-28T06:23:27.778Z,944
2017-02-28T06:24:27.760Z,1180
2017-02-28T06:25:27.744Z,1216
2017-02-28T06:26:27.734Z,1204
2017-02-28T06:27:27.303Z,1180
2017-02-28T06:28:27.719Z,1072
2017-02-28T06:29:27.665Z,1176
2017-02-28T06:30:27.665Z,1376
2017-02-28T06:31:27.642Z,1608
2017-02-28T06:32:27.609Z,1948
2017-02-28T06:33:27.201Z,2108
2017-02-28T06:34:27.614Z,2336
2017-02-28T06:35:27.182Z,2512
2017-02-28T06:36:27.549Z,2736
2017-02-28T06:37:27.514Z,2268
2017-02-28T06:38:27.487Z,2228
2017-02-28T06:39:27.115Z,2460
2017-02-28T06:40:27.449Z,2724
2017-02-28T06:41:27.430Z,3004
2017-02-28T06:42:27.406Z,3104
2017-02-28T06:43:27.380Z,3044
2017-02-28T06:44:26.971Z,3024
2017-02-28T06:45:27.335Z,3268
2017-02-28T06:46:27.333Z,3404
2017-02-28T06:47:27.299Z,3792
2017-02-28T06:48:27.279Z,4068
2017-02-28T06:49:27.263Z,4304
2017-02-28T06:50:26.879Z,4716
2017-02-28T06:51:27.205Z,4676
2017-02-28T06:52:26.830Z,4664
2017-02-28T06:53:27.204Z,4756
2017-02-28T06:54:27.152Z,4908
2017-02-28T06:55:27.156Z,4656
2017-02-28T06:56:27.139Z,4656
2017-02-28T06:57:27.087Z,4836
2017-02-28T06:58:27.073Z,5232
2017-02-28T06:59:27.043Z,5332
2017-02-28T07:00:27.042Z,6568
2017-02-28T07:01:27.016Z,6928
2017-02-28T07:02:26.612Z,5936
2017-02-28T07:03:26.573Z,5368
2017-02-28T07:04:26.584Z,5624
2017-02-28T07:05:26.931Z,5876
2017-02-28T07:06:26.516Z,6320
2017-02-28T07:07:26.881Z,6308
2017-02-28T07:08:26.881Z,6492
2017-02-28T07:09:26.848Z,6920
2017-02-28T07:10:26.457Z,7196
2017-02-28T07:11:26.817Z,7488
2017-02-28T07:12:26.809Z,7936
2017-02-28T07:13:26.764Z,8320
2017-02-28T07:14:26.756Z,9092
2017-02-28T07:15:26.318Z,10052
2017-02-28T07:16:26.694Z,10828
2017-02-28T07:17:26.698Z,10684
2017-02-28T07:18:26.659Z,10612
2017-02-28T07:19:26.642Z,11224
2017-02-28T07:20:26.632Z,10820
2017-02-28T07:21:26.582Z,10996
2017-02-28T07:22:26.587Z,11952
2017-02-28T07:23:26.539Z,11204
2017-02-28T07:24:26.534Z,11440
2017-02-28T07:25:26.513Z,12008
2017-02-28T07:26:26.532Z,12380
2017-02-28T07:27:26.450Z,13080
2017-02-28T07:28:26.476Z,13088
2017-02-28T07:29:26.428Z,12528
2017-02-28T07:30:26.034Z,13860
2017-02-28T07:31:26.400Z,12844
2017-02-28T07:32:26.381Z,12256
2017-02-28T07:33:26.366Z,11064
2017-02-28T07:34:26.341Z,12328
2017-02-28T07:35:25.906Z,12336
2017-02-28T07:36:26.285Z,11712
2017-02-28T07:37:26.252Z,12080
2017-02-28T07:38:26.280Z,11512
2017-02-28T07:39:26.209Z,11820
2017-02-28T07:40:26.231Z,12020
2017-02-28T07:41:26.217Z,13012
2017-02-28T07:42:25.786Z,14180
2017-02-28T07:43:25.749Z,14616
2017-02-28T07:44:26.120Z,15072
2017-02-28T07:45:26.102Z,13844
2017-02-28T07:46:26.089Z,12108
2017-02-28T07:47:26.067Z,12008
2017-02-28T07:48:26.053Z,12784
2017-02-28T07:49:26.029Z,13472
2017-02-28T07:50:25.592Z,14100
2017-02-28T07:51:25.589Z,15172
2017-02-28T07:52:25.991Z,14140
2017-02-28T07:53:25.937Z,14708
2017-02-28T07:54:25.961Z,16040
2017-02-28T07:55:25.891Z,14360
2017-02-28T07:56:25.907Z,13816
2017-02-28T07:57:25.846Z,14716
2017-02-28T07:58:25.462Z,17900
2017-02-28T07:59:25.822Z,17884
2017-02-28T08:00:25.787Z,16036
2017-02-28T08:01:25.785Z,14972
2017-02-28T08:02:25.774Z,14756
2017-02-28T08:03:25.745Z,14580
2017-02-28T08:04:25.701Z,13804
2017-02-28T08:05:25.728Z,13184
2017-02-28T08:06:25.291Z,14608
2017-02-28T08:07:25.262Z,15688
2017-02-28T08:08:25.649Z,15860
2017-02-28T08:09:25.598Z,16564
2017-02-28T08:10:25.582Z,17124
2017-02-28T08:11:25.216Z,15904
2017-02-28T08:12:25.205Z,16252
2017-02-28T08:13:25.524Z,16824
2017-02-28T08:14:25.523Z,16400
2017-02-28T08:15:25.501Z,16556
2017-02-28T08:16:25.481Z,15884
2017-02-28T08:17:25.060Z,16376
2017-02-28T08:18:25.442Z,17044
2017-02-28T08:19:25.422Z,16624
2017-02-28T08:20:25.018Z,16712
2017-02-28T08:21:24.972Z,19008
2017-02-28T08:22:25.359Z,20416
2017-02-28T08:23:24.981Z,20480
2017-02-28T08:24:24.924Z,20896
2017-02-28T08:25:25.316Z,19712
2017-02-28T08:26:25.253Z,19104
2017-02-28T08:27:25.265Z,19040
2017-02-28T08:28:25.237Z,19264
2017-02-28T08:29:24.821Z,19136
2017-02-28T08:30:25.210Z,18976
2017-02-28T08:31:24.811Z,20480
2017-02-28T08:32:25.181Z,20736
2017-02-28T08:33:25.136Z,20160
2017-02-28T08:34:24.718Z,19968
2017-02-28T08:35:24.722Z,20224
2017-02-28T08:36:25.063Z,20928
2017-02-28T08:37:25.044Z,20704
2017-02-28T08:38:25.022Z,21024
2017-02-28T08:39:25.032Z,22368
2017-02-28T08:40:25.024Z,23008
2017-02-28T08:41:24.606Z,22240
2017-02-28T08:42:24.964Z,21440
2017-02-28T08:43:24.558Z,21312
2017-02-28T08:44:24.914Z,20640
2017-02-28T08:45:24.908Z,20544
2017-02-28T08:46:24.876Z,19424
2017-02-28T08:47:24.842Z,19616
2017-02-28T08:48:24.861Z,21024
2017-02-28T08:49:24.825Z,19264
2017-02-28T08:50:24.783Z,18496
2017-02-28T08:51:24.395Z,18624
2017-02-28T08:52:24.754Z,17428
2017-02-28T08:53:24.756Z,17472
2017-02-28T08:54:24.731Z,18976
2017-02-28T08:55:24.716Z,19296
2017-02-28T08:56:24.668Z,18848
2017-02-28T08:57:24.671Z,17776
2017-02-28T08:58:24.627Z,18720
2017-02-28T08:59:23.849Z,20064
2017-02-28T09:00:24.631Z,20288
2017-02-28T09:01:24.565Z,20384
2017-02-28T09:02:24.562Z,21248
2017-02-28T09:03:24.540Z,21088
2017-02-28T09:04:24.554Z,20352
2017-02-28T09:05:24.119Z,19776
2017-02-28T09:06:24.470Z,19232
2017-02-28T09:07:24.473Z,19008
2017-02-28T09:08:24.071Z,18496
2017-02-28T09:09:24.448Z,17976
2017-02-28T09:10:24.407Z,17244
2017-02-28T09:11:24.407Z,17184
2017-02-28T09:12:24.364Z,17288
2017-02-28T09:13:23.976Z,17824
2017-02-28T09:14:23.949Z,17524
2017-02-28T09:15:23.907Z,17072
2017-02-28T09:16:24.280Z,17184
2017-02-28T09:17:23.888Z,18624
2017-02-28T09:18:23.867Z,18944
2017-02-28T09:19:23.833Z,17756
2017-02-28T09:20:24.200Z,18052
2017-02-28T09:21:23.803Z,18656
2017-02-28T09:22:23.782Z,18176
2017-02-28T09:23:23.767Z,17888
2017-02-28T09:24:24.120Z,18944
2017-02-28T09:25:23.720Z,17640
2017-02-28T09:26:24.088Z,17392
2017-02-28T09:27:23.688Z,19040
2017-02-28T09:28:23.664Z,19008
2017-02-28T09:29:24.032Z,18944
2017-02-28T09:30:22.839Z,17912
2017-02-28T09:31:23.622Z,17408
2017-02-28T09:32:23.571Z,17988
2017-02-28T09:33:23.939Z,18688
2017-02-28T09:34:23.947Z,18912
2017-02-28T09:35:23.531Z,21088
2017-02-28T09:36:23.889Z,19456
2017-02-28T09:37:23.882Z,18240
2017-02-28T09:38:23.484Z,17880
2017-02-28T09:39:23.839Z,19872
2017-02-28T09:40:23.836Z,19936
2017-02-28T09:41:23.808Z,20096
2017-02-28T09:42:23.755Z,19392
2017-02-28T09:43:23.770Z,17516
2017-02-28T09:44:23.721Z,16468
2017-02-28T09:45:23.713Z,16512
2017-02-28T09:46:23.319Z,17760
2017-02-28T09:47:23.704Z,19168
2017-02-28T09:48:23.655Z,19712
2017-02-28T09:49:23.668Z,19520
2017-02-28T09:50:23.600Z,20320
2017-02-28T09:51:23.629Z,20608
2017-02-28T09:52:23.574Z,20224
2017-02-28T09:53:23.161Z,21408
2017-02-28T09:54:23.571Z,21600
2017-02-28T09:55:23.536Z,21248
2017-02-28T09:56:23.508Z,21088
2017-02-28T09:57:23.492Z,21728
2017-02-28T09:58:23.470Z,21696
2017-02-28T09:59:23.446Z,21024
2017-02-28T10:00:23.413Z,22304
2017-02-28T10:01:23.396Z,21888
2017-02-28T10:02:23.371Z,22848
2017-02-28T10:03:23.374Z,23648
2017-02-28T10:04:23.353Z,21664
2017-02-28T10:05:23.310Z,20320
2017-02-28T10:06:23.314Z,21568
2017-02-28T10:07:23.278Z,22976
2017-02-28T10:08:23.267Z,23648
2017-02-28T10:09:23.231Z,22944
2017-02-28T10:10:23.228Z,23616
2017-02-28T10:11:23.217Z,23008
2017-02-28T10:12:23.179Z,27040
2017-02-28T10:13:23.170Z,27424
2017-02-28T10:14:23.147Z,26848
2017-02-28T10:15:23.123Z,27424
2017-02-28T10:16:22.719Z,26016
2017-02-28T10:17:23.107Z,26208
2017-02-28T10:18:22.678Z,27136
2017-02-28T10:19:23.060Z,29312
2017-02-28T10:20:22.652Z,25920
2017-02-28T10:21:23.034Z,26144
2017-02-28T10:22:23.012Z,27712
2017-02-28T10:23:22.969Z,27616
2017-02-28T10:24:22.946Z,26496
2017-02-28T10:25:22.544Z,26016
2017-02-28T10:26:22.917Z,26144
2017-02-28T10:27:22.100Z,25344
2017-02-28T10:28:22.860Z,25216
2017-02-28T10:29:22.845Z,26048
2017-02-28T10:30:22.826Z,26432
2017-02-28T10:31:22.442Z,26528
2017-02-28T10:32:22.771Z,25280
2017-02-28T10:33:22.394Z,24192
2017-02-28T10:34:22.369Z,23296
2017-02-28T10:35:22.745Z,27808
2017-02-28T10:36:22.724Z,29664
2017-02-28T10:37:22.683Z,29632
2017-02-28T10:38:22.295Z,27200
2017-02-28T10:39:22.660Z,27104
2017-02-28T10:40:22.684Z,27232
2017-02-28T10:41:22.235Z,26720
2017-02-28T10:42:22.593Z,27872
2017-02-28T10:43:22.578Z,28256
2017-02-28T10:44:22.599Z,28608
2017-02-28T10:45:22.565Z,27872
2017-02-28T10:46:22.547Z,27104
2017-02-28T10:47:22.525Z,27808
2017-02-28T10:48:22.494Z,29600
2017-02-28T10:49:22.481Z,28384
2017-02-28T10:50:22.087Z,27616
2017-02-28T10:51:22.471Z,28672
2017-02-28T10:52:22.404Z,27104
2017-02-28T10:53:22.412Z,27264
2017-02-28T10:54:22.372Z,31456
2017-02-28T10:55:22.417Z,32960
2017-02-28T10:56:21.945Z,29728
2017-02-28T10:57:22.335Z,29792
2017-02-28T10:58:22.313Z,30272
2017-02-28T10:59:22.305Z,31424
2017-02-28T11:00:22.257Z,31008
2017-02-28T11:01:22.268Z,30176
2017-02-28T11:02:22.280Z,28256
2017-02-28T11:03:22.216Z,28864
2017-02-28T11:04:22.182Z,29024
2017-02-28T11:05:22.202Z,29856
2017-02-28T11:06:22.177Z,29664
2017-02-28T11:07:22.127Z,30592
2017-02-28T11:08:21.744Z,32224
2017-02-28T11:09:22.104Z,31520
2017-02-28T11:10:22.105Z,31840
2017-02-28T11:11:22.062Z,31840
2017-02-28T11:12:22.059Z,27744
2017-02-28T11:13:22.028Z,26272
2017-02-28T11:14:22.000Z,27552
2017-02-28T11:15:21.997Z,27456
2017-02-28T11:16:21.971Z,27904
2017-02-28T11:17:21.949Z,28448
2017-02-28T11:18:21.944Z,31136
2017-02-28T11:19:21.913Z,31296
2017-02-28T11:20:21.941Z,31232
2017-02-28T11:21:21.877Z,33440
2017-02-28T11:22:21.875Z,31904
2017-02-28T11:23:21.841Z,30944
2017-02-28T11:24:21.850Z,31840
2017-02-28T11:25:21.858Z,33824
2017-02-28T11:26:21.037Z,35072
2017-02-28T11:27:21.772Z,32096
2017-02-28T11:28:21.746Z,31360
2017-02-28T11:29:21.761Z,31360
2017-02-28T11:30:21.721Z,29856
2017-02-28T11:31:21.708Z,27680
2017-02-28T11:32:21.676Z,27104
2017-02-28T11:33:21.675Z,26464
2017-02-28T11:34:21.655Z,25312
2017-02-28T11:35:21.608Z,27872
2017-02-28T11:36:21.621Z,30240
2017-02-28T11:37:21.612Z,27648
2017-02-28T11:38:21.586Z,25248
2017-02-28T11:39:21.570Z,26048
2017-02-28T11:40:21.528Z,26688
2017-02-28T11:41:21.553Z,24224
2017-02-28T11:42:21.540Z,23936
2017-02-28T11:43:21.501Z,25728
2017-02-28T11:44:21.466Z,23488
2017-02-28T11:45:21.480Z,21792
2017-02-28T11:46:21.038Z,23488
2017-02-28T11:47:21.037Z,23936
2017-02-28T11:48:21.014Z,24832
2017-02-28T11:49:21.387Z,25632
2017-02-28T11:50:21.371Z,25344
2017-02-28T11:51:21.334Z,25600
2017-02-28T11:52:20.945Z,25792
2017-02-28T11:53:21.302Z,22496
2017-02-28T11:54:20.896Z,23232
2017-02-28T11:55:20.867Z,23200
2017-02-28T11:56:21.236Z,23328
2017-02-28T11:57:21.234Z,23136
2017-02-28T11:58:21.206Z,22336
2017-02-28T11:59:21.206Z,24544
2017-02-28T12:00:21.197Z,24608
2017-02-28T12:01:20.749Z,24000
2017-02-28T12:02:21.119Z,23072
2017-02-28T12:03:21.122Z,22464
2017-02-28T12:04:21.079Z,23744
2017-02-28T12:05:21.091Z,24800
2017-02-28T12:06:21.043Z,23392
2017-02-28T12:07:21.047Z,21600
2017-02-28T12:08:21.035Z,21408
2017-02-28T12:09:20.969Z,23744
2017-02-28T12:10:21.000Z,24160
2017-02-28T12:11:20.971Z,26432
2017-02-28T12:12:20.933Z,25760
2017-02-28T12:13:20.924Z,24256
2017-02-28T12:14:20.919Z,24768
2017-02-28T12:15:20.892Z,24480
2017-02-28T12:16:20.864Z,23296
2017-02-28T12:17:20.472Z,23360
2017-02-28T12:18:20.830Z,23904
2017-02-28T12:19:20.835Z,22208
2017-02-28T12:20:20.805Z,22464
2017-02-28T12:21:20.795Z,22368
2017-02-28T12:22:20.737Z,22752
2017-02-28T12:23:20.748Z,23104
2017-02-28T12:24:20.736Z,22592
2017-02-28T12:25:20.679Z,20800
2017-02-28T12:26:20.658Z,21696
2017-02-28T12:27:20.648Z,23168
2017-02-28T12:28:20.645Z,22656
2017-02-28T12:29:20.604Z,23360
2017-02-28T12:30:20.604Z,23104
2017-02-28T12:31:20.202Z,25408
2017-02-28T12:32:20.531Z,27840
2017-02-28T12:33:20.138Z,26368
2017-02-28T12:34:20.155Z,24960
2017-02-28T12:35:20.148Z,25568
2017-02-28T12:36:20.492Z,25696
2017-02-28T12:37:20.058Z,25856
2017-02-28T12:38:20.430Z,25632
2017-02-28T12:39:20.436Z,25280
2017-02-28T12:40:20.413Z,22048
2017-02-28T12:41:20.381Z,19776
2017-02-28T12:42:20.353Z,21280
2017-02-28T12:43:20.329Z,21984
2017-02-28T12:44:20.349Z,18016
2017-02-28T12:45:20.302Z,19232
2017-02-28T12:46:20.290Z,20608
2017-02-28T12:47:19.485Z,20288
2017-02-28T12:48:20.235Z,19008
2017-02-28T12:49:20.237Z,21440
2017-02-28T12:50:20.186Z,19872
2017-02-28T12:51:20.184Z,21536
2017-02-28T12:52:20.170Z,23712
2017-02-28T12:53:20.134Z,21888
2017-02-28T12:54:20.138Z,20544
2017-02-28T12:55:20.090Z,21792
2017-02-28T12:56:19.711Z,21440
2017-02-28T12:57:20.079Z,20000
2017-02-28T12:58:20.039Z,19360
2017-02-28T12:59:20.033Z,19552
2017-02-28T13:00:20.020Z,20288
2017-02-28T13:01:19.981Z,19744
2017-02-28T13:02:19.583Z,20640
2017-02-28T13:03:19.928Z,19584
2017-02-28T13:04:19.553Z,19552
2017-02-28T13:05:19.887Z,19232
2017-02-28T13:06:19.866Z,17728
2017-02-28T13:07:19.512Z,19584
2017-02-28T13:08:19.449Z,19072
2017-02-28T13:09:19.806Z,18528
2017-02-28T13:10:19.814Z,19520
2017-02-28T13:11:19.789Z,19360
2017-02-28T13:12:19.765Z,18816
2017-02-28T13:13:19.356Z,17888
2017-02-28T13:14:19.733Z,17952
2017-02-28T13:15:19.327Z,18080
2017-02-28T13:16:19.680Z,18496
2017-02-28T13:17:19.696Z,17824
2017-02-28T13:18:19.250Z,16516
2017-02-28T13:19:19.611Z,16908
2017-02-28T13:20:19.619Z,16500
2017-02-28T13:21:19.564Z,16068
2017-02-28T13:22:19.551Z,16948
2017-02-28T13:23:19.564Z,17440
2017-02-28T13:24:19.530Z,16828
2017-02-28T13:25:19.507Z,16548
2017-02-28T13:26:19.490Z,16636
2017-02-28T13:27:19.068Z,17728
2017-02-28T13:28:19.442Z,18240
2017-02-28T13:29:19.429Z,18752
2017-02-28T13:30:19.043Z,19200
2017-02-28T13:31:19.385Z,18944
2017-02-28T13:32:19.353Z,18560
2017-02-28T13:33:19.357Z,18432
2017-02-28T13:34:19.347Z,18528
2017-02-28T13:35:18.911Z,18112
2017-02-28T13:36:19.299Z,17920
2017-02-28T13:37:19.265Z,18784
2017-02-28T13:38:19.240Z,18880
2017-02-28T13:39:19.253Z,18464
2017-02-28T13:40:19.197Z,18272
2017-02-28T13:41:19.194Z,18528